sensor_id;sensor_type;location;lat;lon;timestamp;pressure;altitude;pressure_sealevel;temperature;humidity
23733;BME280;12047;53.450;-2.286;2023-03-03T00:00:54;102719.13;;;10.61;83.60
23733;BME280;12047;53.450;-2.286;2023-03-03T00:05:54;102719.59;;;10.98;83.52
23733;BME280;12047;53.450;-2.286;2023-03-03T00:10:55;102721.13;;;10.72;83.01
23733;BME280;12047;53.450;-2.286;2023-03-03T00:16:12;102721.81;;;11.48;81.90
23733;BME280;12047;53.450;-2.286;2023-03-03T00:21:40;102731.78;;;10.56;84.00
23733;BME280;12047;53.450;-2.286;2023-03-03T00:26:54;102734.63;;;10.53;84.54
23733;BME280;12047;53.450;-2.286;2023-03-03T00:37:03;102738.72;;;10.43;84.32
23733;BME280;12047;53.450;-2.286;2023-03-03T00:42:19;102736.09;;;11.03;83.17
23733;BME280;12047;53.450;-2.286;2023-03-03T00:53:03;102734.41;;;10.72;83.17
23733;BME280;12047;53.450;-2.286;2023-03-03T00:58:04;102732.50;;;11.18;81.88
23733;BME280;12047;53.450;-2.286;2023-03-03T01:03:07;102733.03;;;11.53;82.37
23733;BME280;12047;53.450;-2.286;2023-03-03T01:08:08;102743.28;;;11.01;82.85
23733;BME280;12047;53.450;-2.286;2023-03-03T01:13:09;102739.72;;;11.16;82.63
23733;BME280;12047;53.450;-2.286;2023-03-03T01:18:11;102750.66;;;10.96;83.66
23733;BME280;12047;53.450;-2.286;2023-03-03T01:23:12;102745.00;;;10.72;82.75
23733;BME280;12047;53.450;-2.286;2023-03-03T01:28:12;102745.50;;;11.22;80.85
23733;BME280;12047;53.450;-2.286;2023-03-03T01:33:13;102762.28;;;10.79;82.40
23733;BME280;12047;53.450;-2.286;2023-03-03T01:38:14;102756.16;;;10.15;84.87
23733;BME280;12047;53.450;-2.286;2023-03-03T01:43:15;102760.22;;;11.28;82.35
23733;BME280;12047;53.450;-2.286;2023-03-03T01:48:40;102760.22;;;10.84;82.91
23733;BME280;12047;53.450;-2.286;2023-03-03T01:53:47;102753.75;;;11.18;81.83
23733;BME280;12047;53.450;-2.286;2023-03-03T01:58:52;102749.78;;;11.11;82.06
23733;BME280;12047;53.450;-2.286;2023-03-03T02:03:55;102747.13;;;11.11;82.17
23733;BME280;12047;53.450;-2.286;2023-03-03T02:14:00;102751.59;;;10.95;83.66
23733;BME280;12047;53.450;-2.286;2023-03-03T02:19:00;102747.19;;;11.09;82.54
23733;BME280;12047;53.450;-2.286;2023-03-03T02:29:25;102736.00;;;11.04;84.22
23733;BME280;12047;53.450;-2.286;2023-03-03T02:34:25;102734.09;;;10.46;84.77
23733;BME280;12047;53.450;-2.286;2023-03-03T02:39:26;102734.56;;;10.99;85.17
23733;BME280;12047;53.450;-2.286;2023-03-03T02:44:30;102733.50;;;10.87;84.86
23733;BME280;12047;53.450;-2.286;2023-03-03T02:49:33;102743.25;;;11.31;83.83
23733;BME280;12047;53.450;-2.286;2023-03-03T02:54:35;102737.31;;;10.21;85.89
23733;BME280;12047;53.450;-2.286;2023-03-03T02:59:35;102728.06;;;10.29;86.77
23733;BME280;12047;53.450;-2.286;2023-03-03T03:04:36;102740.44;;;9.81;87.77
23733;BME280;12047;53.450;-2.286;2023-03-03T03:09:36;102740.81;;;10.22;84.98
23733;BME280;12047;53.450;-2.286;2023-03-03T03:14:37;102732.56;;;10.58;84.27
23733;BME280;12047;53.450;-2.286;2023-03-03T03:19:38;102727.50;;;11.42;82.67
23733;BME280;12047;53.450;-2.286;2023-03-03T03:24:38;102731.56;;;10.13;85.17
23733;BME280;12047;53.450;-2.286;2023-03-03T03:29:40;102738.63;;;9.97;86.04
23733;BME280;12047;53.450;-2.286;2023-03-03T03:34:41;102739.66;;;11.32;83.01
23733;BME280;12047;53.450;-2.286;2023-03-03T03:39:42;102739.59;;;11.03;82.89
23733;BME280;12047;53.450;-2.286;2023-03-03T03:44:42;102739.47;;;10.90;82.69
23733;BME280;12047;53.450;-2.286;2023-03-03T03:49:43;102749.94;;;10.48;82.00
23733;BME280;12047;53.450;-2.286;2023-03-03T03:54:43;102740.97;;;10.80;82.84
23733;BME280;12047;53.450;-2.286;2023-03-03T03:59:44;102745.75;;;10.44;82.69
23733;BME280;12047;53.450;-2.286;2023-03-03T04:04:45;102746.28;;;10.35;82.62
23733;BME280;12047;53.450;-2.286;2023-03-03T04:09:46;102740.59;;;10.56;83.26
23733;BME280;12047;53.450;-2.286;2023-03-03T04:14:46;102744.75;;;11.20;81.66
23733;BME280;12047;53.450;-2.286;2023-03-03T04:19:47;102742.78;;;10.34;81.66
23733;BME280;12047;53.450;-2.286;2023-03-03T04:24:47;102739.94;;;10.21;83.64
23733;BME280;12047;53.450;-2.286;2023-03-03T04:29:48;102739.34;;;9.52;84.91
23733;BME280;12047;53.450;-2.286;2023-03-03T04:34:49;102727.78;;;10.79;82.72
23733;BME280;12047;53.450;-2.286;2023-03-03T04:39:50;102734.47;;;10.25;82.50
23733;BME280;12047;53.450;-2.286;2023-03-03T04:44:50;102735.31;;;10.56;82.47
23733;BME280;12047;53.450;-2.286;2023-03-03T04:49:51;102738.84;;;10.71;82.26
23733;BME280;12047;53.450;-2.286;2023-03-03T04:54:52;102745.03;;;10.56;83.71
23733;BME280;12047;53.450;-2.286;2023-03-03T04:59:52;102740.31;;;9.67;86.12
23733;BME280;12047;53.450;-2.286;2023-03-03T05:04:53;102740.09;;;10.18;84.70
23733;BME280;12047;53.450;-2.286;2023-03-03T05:09:54;102746.69;;;10.27;84.81
23733;BME280;12047;53.450;-2.286;2023-03-03T05:14:54;102737.50;;;10.17;84.90
23733;BME280;12047;53.450;-2.286;2023-03-03T05:19:55;102738.53;;;10.62;83.81
23733;BME280;12047;53.450;-2.286;2023-03-03T05:24:56;102725.59;;;10.26;84.16
23733;BME280;12047;53.450;-2.286;2023-03-03T05:29:56;102726.22;;;10.61;83.94
23733;BME280;12047;53.450;-2.286;2023-03-03T05:34:57;102727.03;;;11.49;82.28
23733;BME280;12047;53.450;-2.286;2023-03-03T05:39:58;102727.88;;;10.16;84.52
23733;BME280;12047;53.450;-2.286;2023-03-03T05:44:58;102735.50;;;10.38;84.20
23733;BME280;12047;53.450;-2.286;2023-03-03T05:49:59;102737.19;;;10.54;86.26
23733;BME280;12047;53.450;-2.286;2023-03-03T05:55:00;102737.03;;;11.02;85.84
23733;BME280;12047;53.450;-2.286;2023-03-03T06:00:02;102735.97;;;9.97;89.44
23733;BME280;12047;53.450;-2.286;2023-03-03T06:05:03;102745.03;;;9.93;88.81
23733;BME280;12047;53.450;-2.286;2023-03-03T06:10:04;102742.22;;;9.47;91.74
23733;BME280;12047;53.450;-2.286;2023-03-03T06:15:06;102734.88;;;10.01;90.67
23733;BME280;12047;53.450;-2.286;2023-03-03T06:20:07;102742.03;;;10.15;89.39
23733;BME280;12047;53.450;-2.286;2023-03-03T06:25:08;102746.41;;;10.16;89.71
23733;BME280;12047;53.450;-2.286;2023-03-03T06:30:09;102745.13;;;9.76;94.56
23733;BME280;12047;53.450;-2.286;2023-03-03T06:35:10;102744.19;;;9.93;96.14
23733;BME280;12047;53.450;-2.286;2023-03-03T06:40:11;102746.09;;;10.06;98.45
23733;BME280;12047;53.450;-2.286;2023-03-03T06:45:13;102750.72;;;10.34;95.24
23733;BME280;12047;53.450;-2.286;2023-03-03T06:50:17;102756.81;;;9.72;96.15
23733;BME280;12047;53.450;-2.286;2023-03-03T06:55:22;102767.34;;;10.05;96.13
23733;BME280;12047;53.450;-2.286;2023-03-03T07:00:24;102773.13;;;10.29;95.60
23733;BME280;12047;53.450;-2.286;2023-03-03T07:05:26;102778.09;;;10.35;98.33
23733;BME280;12047;53.450;-2.286;2023-03-03T07:10:29;102786.00;;;9.37;100.00
23733;BME280;12047;53.450;-2.286;2023-03-03T07:15:34;102791.34;;;9.86;100.00
23733;BME280;12047;53.450;-2.286;2023-03-03T07:20:40;102791.22;;;10.52;99.16
23733;BME280;12047;53.450;-2.286;2023-03-03T07:25:42;102796.81;;;10.32;98.67
23733;BME280;12047;53.450;-2.286;2023-03-03T07:30:47;102805.53;;;10.16;99.85
23733;BME280;12047;53.450;-2.286;2023-03-03T07:35:48;102803.91;;;9.82;100.00
23733;BME280;12047;53.450;-2.286;2023-03-03T07:40:54;102803.84;;;10.00;100.00
23733;BME280;12047;53.450;-2.286;2023-03-03T07:51:22;102810.59;;;9.89;100.00
23733;BME280;12047;53.450;-2.286;2023-03-03T07:56:42;102815.94;;;9.55;100.00
23733;BME280;12047;53.450;-2.286;2023-03-03T08:01:45;102820.00;;;9.62;100.00
23733;BME280;12047;53.450;-2.286;2023-03-03T08:06:50;102816.16;;;10.79;100.00
23733;BME280;12047;53.450;-2.286;2023-03-03T08:11:58;102823.31;;;10.63;100.00
23733;BME280;12047;53.450;-2.286;2023-03-03T08:17:01;102819.47;;;11.29;100.00
23733;BME280;12047;53.450;-2.286;2023-03-03T08:22:27;102830.78;;;11.16;100.00
23733;BME280;12047;53.450;-2.286;2023-03-03T08:27:30;102834.13;;;11.20;100.00
23733;BME280;12047;53.450;-2.286;2023-03-03T08:32:30;102835.72;;;10.93;100.00
23733;BME280;12047;53.450;-2.286;2023-03-03T08:37:31;102837.38;;;10.79;100.00
23733;BME280;12047;53.450;-2.286;2023-03-03T08:42:32;102840.84;;;10.34;100.00
23733;BME280;12047;53.450;-2.286;2023-03-03T08:47:32;102842.84;;;10.76;100.00
23733;BME280;12047;53.450;-2.286;2023-03-03T08:52:33;102855.59;;;9.89;100.00
23733;BME280;12047;53.450;-2.286;2023-03-03T08:57:34;102855.94;;;9.99;100.00
23733;BME280;12047;53.450;-2.286;2023-03-03T09:02:34;102862.19;;;9.98;100.00
23733;BME280;12047;53.450;-2.286;2023-03-03T09:07:36;102856.66;;;10.36;100.00
23733;BME280;12047;53.450;-2.286;2023-03-03T09:12:41;102858.44;;;10.67;100.00
23733;BME280;12047;53.450;-2.286;2023-03-03T09:17:42;102849.34;;;10.23;100.00
23733;BME280;12047;53.450;-2.286;2023-03-03T09:22:43;102861.94;;;10.36;100.00
23733;BME280;12047;53.450;-2.286;2023-03-03T09:27:44;102866.88;;;9.93;100.00
23733;BME280;12047;53.450;-2.286;2023-03-03T09:32:44;102869.66;;;9.57;100.00
23733;BME280;12047;53.450;-2.286;2023-03-03T09:37:48;102857.50;;;10.52;100.00
23733;BME280;12047;53.450;-2.286;2023-03-03T09:42:56;102868.78;;;10.55;100.00
23733;BME280;12047;53.450;-2.286;2023-03-03T10:04:14;102872.13;;;11.20;100.00
23733;BME280;12047;53.450;-2.286;2023-03-03T10:25:42;102872.81;;;10.63;99.85
23733;BME280;12047;53.450;-2.286;2023-03-03T10:36:26;102875.81;;;11.92;93.45
23733;BME280;12047;53.450;-2.286;2023-03-03T10:41:46;102883.25;;;10.81;97.14
23733;BME280;12047;53.450;-2.286;2023-03-03T11:13:44;102892.00;;;11.43;96.84
23733;BME280;12047;53.450;-2.286;2023-03-03T11:35:25;102899.09;;;11.73;90.76
23733;BME280;12047;53.450;-2.286;2023-03-03T11:40:40;102898.09;;;12.60;90.23
23733;BME280;12047;53.450;-2.286;2023-03-03T11:45:47;102891.66;;;12.36;90.27
23733;BME280;12047;53.450;-2.286;2023-03-03T11:56:33;102900.88;;;12.31;90.80
23733;BME280;12047;53.450;-2.286;2023-03-03T12:07:32;102899.44;;;12.25;92.28
23733;BME280;12047;53.450;-2.286;2023-03-03T12:12:44;102903.53;;;12.31;92.69
23733;BME280;12047;53.450;-2.286;2023-03-03T12:23:24;102898.25;;;11.72;90.75
23733;BME280;12047;53.450;-2.286;2023-03-03T12:28:45;102891.50;;;11.67;91.36
23733;BME280;12047;53.450;-2.286;2023-03-03T12:33:52;102893.63;;;12.47;87.82
23733;BME280;12047;53.450;-2.286;2023-03-03T12:39:11;102891.59;;;12.09;88.01
23733;BME280;12047;53.450;-2.286;2023-03-03T12:49:58;102875.41;;;12.55;85.64
23733;BME280;12047;53.450;-2.286;2023-03-03T13:16:18;102866.09;;;12.48;84.04
23733;BME280;12047;53.450;-2.286;2023-03-03T13:21:37;102864.81;;;12.94;83.12
23733;BME280;12047;53.450;-2.286;2023-03-03T13:26:49;102863.47;;;12.34;81.86
23733;BME280;12047;53.450;-2.286;2023-03-03T13:31:59;102864.69;;;12.69;79.35
23733;BME280;12047;53.450;-2.286;2023-03-03T13:37:21;102854.63;;;13.14;78.73
23733;BME280;12047;53.450;-2.286;2023-03-03T13:42:50;102860.69;;;12.76;80.09
23733;BME280;12047;53.450;-2.286;2023-03-03T14:04:08;102848.00;;;12.94;78.88
23733;BME280;12047;53.450;-2.286;2023-03-03T14:14:43;102841.25;;;12.88;78.12
23733;BME280;12047;53.450;-2.286;2023-03-03T14:25:16;102827.16;;;13.66;75.51
23733;BME280;12047;53.450;-2.286;2023-03-03T14:35:29;102822.31;;;12.80;77.96
23733;BME280;12047;53.450;-2.286;2023-03-03T14:40:34;102828.34;;;13.09;76.77
23733;BME280;12047;53.450;-2.286;2023-03-03T14:45:39;102824.84;;;13.09;77.30
23733;BME280;12047;53.450;-2.286;2023-03-03T14:50:42;102824.16;;;13.32;75.71
23733;BME280;12047;53.450;-2.286;2023-03-03T14:55:52;102823.34;;;13.05;75.72
23733;BME280;12047;53.450;-2.286;2023-03-03T15:01:14;102816.72;;;13.75;75.73
23733;BME280;12047;53.450;-2.286;2023-03-03T15:06:34;102815.13;;;13.85;75.73
23733;BME280;12047;53.450;-2.286;2023-03-03T15:11:35;102806.66;;;12.88;76.70
23733;BME280;12047;53.450;-2.286;2023-03-03T15:16:36;102809.13;;;13.18;76.43
23733;BME280;12047;53.450;-2.286;2023-03-03T15:22:04;102795.19;;;13.66;74.69
23733;BME280;12047;53.450;-2.286;2023-03-03T15:27:20;102785.88;;;14.70;91.21
23733;BME280;12047;53.450;-2.286;2023-03-03T15:32:28;102795.50;;;12.96;76.55
23733;BME280;12047;53.450;-2.286;2023-03-03T15:37:42;102793.03;;;12.80;75.26
23733;BME280;12047;53.450;-2.286;2023-03-03T16:04:09;102777.03;;;14.33;73.12
23733;BME280;12047;53.450;-2.286;2023-03-03T16:14:58;102776.53;;;13.66;73.73
23733;BME280;12047;53.450;-2.286;2023-03-03T16:20:28;102783.06;;;13.49;74.36
23733;BME280;12047;53.450;-2.286;2023-03-03T16:25:57;102787.03;;;13.04;76.54
23733;BME280;12047;53.450;-2.286;2023-03-03T16:31:12;102779.19;;;13.40;76.98
23733;BME280;12047;53.450;-2.286;2023-03-03T16:41:34;102775.38;;;13.44;75.48
23733;BME280;12047;53.450;-2.286;2023-03-03T16:46:41;102777.09;;;13.58;74.58
23733;BME280;12047;53.450;-2.286;2023-03-03T16:51:52;102781.88;;;13.40;75.04
23733;BME280;12047;53.450;-2.286;2023-03-03T17:02:36;102794.50;;;12.72;77.73
23733;BME280;12047;53.450;-2.286;2023-03-03T17:23:40;102801.38;;;13.53;77.73
23733;BME280;12047;53.450;-2.286;2023-03-03T17:45:15;102817.56;;;12.98;79.33
23733;BME280;12047;53.450;-2.286;2023-03-03T18:22:12;102845.50;;;13.70;74.73
23733;BME280;12047;53.450;-2.286;2023-03-03T18:32:23;102849.81;;;14.22;74.58
23733;BME280;12047;53.450;-2.286;2023-03-03T18:42:37;102858.19;;;13.79;75.81
23733;BME280;12047;53.450;-2.286;2023-03-03T18:53:28;102869.16;;;13.75;75.24
23733;BME280;12047;53.450;-2.286;2023-03-03T18:58:33;102880.09;;;13.05;75.86
23733;BME280;12047;53.450;-2.286;2023-03-03T19:03:36;102871.28;;;13.70;74.77
23733;BME280;12047;53.450;-2.286;2023-03-03T19:08:53;102872.03;;;12.92;76.11
23733;BME280;12047;53.450;-2.286;2023-03-03T19:19:22;102878.19;;;13.07;77.24
23733;BME280;12047;53.450;-2.286;2023-03-03T19:24:26;102872.94;;;13.33;76.19
23733;BME280;12047;53.450;-2.286;2023-03-03T19:56:55;102886.94;;;13.61;77.98
23733;BME280;12047;53.450;-2.286;2023-03-03T20:12:41;102895.16;;;13.19;79.32
23733;BME280;12047;53.450;-2.286;2023-03-03T20:23:57;102908.72;;;13.14;77.83
23733;BME280;12047;53.450;-2.286;2023-03-03T20:50:23;102915.53;;;12.65;81.69
23733;BME280;12047;53.450;-2.286;2023-03-03T20:55:50;102925.56;;;12.18;82.40
23733;BME280;12047;53.450;-2.286;2023-03-03T21:01:04;102931.00;;;12.86;80.67
23733;BME280;12047;53.450;-2.286;2023-03-03T21:06:16;102927.91;;;12.92;81.17
23733;BME280;12047;53.450;-2.286;2023-03-03T21:11:38;102926.91;;;12.81;80.65
23733;BME280;12047;53.450;-2.286;2023-03-03T21:16:47;102935.72;;;12.95;80.02
23733;BME280;12047;53.450;-2.286;2023-03-03T21:21:54;102940.06;;;12.97;79.42
23733;BME280;12047;53.450;-2.286;2023-03-03T21:26:57;102940.31;;;12.79;79.52
23733;BME280;12047;53.450;-2.286;2023-03-03T21:32:00;102957.06;;;12.24;80.39
23733;BME280;12047;53.450;-2.286;2023-03-03T21:37:08;102956.84;;;12.84;79.11
23733;BME280;12047;53.450;-2.286;2023-03-03T21:42:11;102964.34;;;11.63;80.73
23733;BME280;12047;53.450;-2.286;2023-03-03T21:47:16;102958.13;;;13.06;78.58
23733;BME280;12047;53.450;-2.286;2023-03-03T21:58:16;102970.91;;;12.01;81.35
23733;BME280;12047;53.450;-2.286;2023-03-03T22:03:17;102978.19;;;11.83;82.66
23733;BME280;12047;53.450;-2.286;2023-03-03T22:08:19;102981.19;;;12.21;79.89
23733;BME280;12047;53.450;-2.286;2023-03-03T22:13:24;102975.88;;;12.21;81.58
23733;BME280;12047;53.450;-2.286;2023-03-03T22:18:26;102980.78;;;12.13;82.54
23733;BME280;12047;53.450;-2.286;2023-03-03T22:23:26;102977.47;;;12.67;80.93
23733;BME280;12047;53.450;-2.286;2023-03-03T22:28:28;102979.69;;;12.46;80.95
23733;BME280;12047;53.450;-2.286;2023-03-03T22:33:28;102978.97;;;12.14;80.89
23733;BME280;12047;53.450;-2.286;2023-03-03T22:38:29;102976.44;;;12.41;81.53
23733;BME280;12047;53.450;-2.286;2023-03-03T22:43:30;102972.84;;;12.42;81.66
23733;BME280;12047;53.450;-2.286;2023-03-03T22:48:31;102971.78;;;12.16;81.75
23733;BME280;12047;53.450;-2.286;2023-03-03T22:53:32;102964.91;;;11.68;82.94
23733;BME280;12047;53.450;-2.286;2023-03-03T22:58:32;102966.75;;;12.11;83.85
23733;BME280;12047;53.450;-2.286;2023-03-03T23:03:33;102960.09;;;11.44;84.30
23733;BME280;12047;53.450;-2.286;2023-03-03T23:08:34;102955.94;;;12.57;82.13
23733;BME280;12047;53.450;-2.286;2023-03-03T23:13:34;102960.25;;;11.57;84.42
23733;BME280;12047;53.450;-2.286;2023-03-03T23:18:35;102979.09;;;12.26;82.53
23733;BME280;12047;53.450;-2.286;2023-03-03T23:23:36;102972.03;;;11.97;83.09
23733;BME280;12047;53.450;-2.286;2023-03-03T23:28:36;102978.88;;;12.01;81.57
23733;BME280;12047;53.450;-2.286;2023-03-03T23:33:37;102980.78;;;11.99;80.50
23733;BME280;12047;53.450;-2.286;2023-03-03T23:38:37;102986.13;;;12.70;78.01
23733;BME280;12047;53.450;-2.286;2023-03-03T23:43:38;102982.88;;;12.65;77.03
23733;BME280;12047;53.450;-2.286;2023-03-03T23:48:38;102992.09;;;12.74;77.81
23733;BME280;12047;53.450;-2.286;2023-03-03T23:53:39;102988.84;;;11.98;78.31
23733;BME280;12047;53.450;-2.286;2023-03-03T23:58:39;102989.59;;;12.00;78.84
